sensor_id;sensor_type;location;lat;lon;timestamp;P1;durP1;ratioP1;P2;durP2;ratioP2
19971;SDS011;10147;16.402;102.848;2023-03-03T00:00:22;77.72;;;66.75;;
19971;SDS011;10147;16.402;102.848;2023-03-03T00:02:53;76.53;;;63.83;;
19971;SDS011;10147;16.402;102.848;2023-03-03T00:05:25;56.60;;;40.17;;
19971;SDS011;10147;16.402;102.848;2023-03-03T00:07:56;62.38;;;39.80;;
19971;SDS011;10147;16.402;102.848;2023-03-03T00:10:26;65.18;;;40.17;;
19971;SDS011;10147;16.402;102.848;2023-03-03T00:12:57;60.08;;;41.20;;
19971;SDS011;10147;16.402;102.848;2023-03-03T00:15:28;70.10;;;41.20;;
19971;SDS011;10147;16.402;102.848;2023-03-03T00:18:00;60.08;;;42.33;;
19971;SDS011;10147;16.402;102.848;2023-03-03T00:20:39;60.42;;;43.35;;
19971;SDS011;10147;16.402;102.848;2023-03-03T00:23:15;61.03;;;42.70;;
19971;SDS011;10147;16.402;102.848;2023-03-03T00:25:57;62.13;;;44.90;;
19971;SDS011;10147;16.402;102.848;2023-03-03T00:28:30;59.70;;;41.25;;
19971;SDS011;10147;16.402;102.848;2023-03-03T00:31:22;58.50;;;41.35;;
19971;SDS011;10147;16.402;102.848;2023-03-03T00:36:56;57.97;;;41.22;;
19971;SDS011;10147;16.402;102.848;2023-03-03T00:39:32;64.78;;;41.63;;
19971;SDS011;10147;16.402;102.848;2023-03-03T00:42:09;60.22;;;42.97;;
19971;SDS011;10147;16.402;102.848;2023-03-03T00:44:47;56.42;;;41.08;;
19971;SDS011;10147;16.402;102.848;2023-03-03T00:47:37;53.47;;;38.83;;
19971;SDS011;10147;16.402;102.848;2023-03-03T00:50:17;59.85;;;39.40;;
19971;SDS011;10147;16.402;102.848;2023-03-03T00:53:03;55.88;;;39.17;;
19971;SDS011;10147;16.402;102.848;2023-03-03T00:55:53;51.97;;;37.75;;
19971;SDS011;10147;16.402;102.848;2023-03-03T00:58:24;57.45;;;39.50;;
19971;SDS011;10147;16.402;102.848;2023-03-03T01:00:56;57.47;;;39.13;;
19971;SDS011;10147;16.402;102.848;2023-03-03T01:03:36;53.40;;;38.85;;
19971;SDS011;10147;16.402;102.848;2023-03-03T01:06:08;50.20;;;38.50;;
19971;SDS011;10147;16.402;102.848;2023-03-03T01:08:38;52.70;;;38.50;;
19971;SDS011;10147;16.402;102.848;2023-03-03T01:11:11;52.28;;;37.40;;
19971;SDS011;10147;16.402;102.848;2023-03-03T01:13:50;54.63;;;38.03;;
19971;SDS011;10147;16.402;102.848;2023-03-03T01:16:21;53.28;;;38.75;;
19971;SDS011;10147;16.402;102.848;2023-03-03T01:18:52;49.35;;;36.25;;
19971;SDS011;10147;16.402;102.848;2023-03-03T01:21:22;53.17;;;37.22;;
19971;SDS011;10147;16.402;102.848;2023-03-03T01:23:53;52.88;;;37.72;;
19971;SDS011;10147;16.402;102.848;2023-03-03T01:26:23;47.53;;;37.10;;
19971;SDS011;10147;16.402;102.848;2023-03-03T01:28:53;52.92;;;36.50;;
19971;SDS011;10147;16.402;102.848;2023-03-03T01:31:24;51.63;;;36.80;;
19971;SDS011;10147;16.402;102.848;2023-03-03T01:33:55;47.92;;;36.47;;
19971;SDS011;10147;16.402;102.848;2023-03-03T01:36:26;49.88;;;37.90;;
19971;SDS011;10147;16.402;102.848;2023-03-03T01:38:57;48.78;;;37.28;;
19971;SDS011;10147;16.402;102.848;2023-03-03T01:41:28;55.63;;;36.97;;
19971;SDS011;10147;16.402;102.848;2023-03-03T01:44:01;56.67;;;37.35;;
19971;SDS011;10147;16.402;102.848;2023-03-03T01:49:58;56.40;;;36.20;;
19971;SDS011;10147;16.402;102.848;2023-03-03T01:52:33;56.03;;;38.05;;
19971;SDS011;10147;16.402;102.848;2023-03-03T01:55:17;47.28;;;37.35;;
19971;SDS011;10147;16.402;102.848;2023-03-03T01:57:54;54.05;;;36.22;;
19971;SDS011;10147;16.402;102.848;2023-03-03T02:00:31;53.08;;;38.15;;
19971;SDS011;10147;16.402;102.848;2023-03-03T02:03:03;48.47;;;35.72;;
19971;SDS011;10147;16.402;102.848;2023-03-03T02:05:34;54.92;;;47.88;;
19971;SDS011;10147;16.402;102.848;2023-03-03T02:08:05;47.22;;;37.63;;
19971;SDS011;10147;16.402;102.848;2023-03-03T02:10:38;48.97;;;35.60;;
19971;SDS011;10147;16.402;102.848;2023-03-03T02:13:09;51.80;;;34.85;;
19971;SDS011;10147;16.402;102.848;2023-03-03T02:15:40;44.42;;;35.55;;
19971;SDS011;10147;16.402;102.848;2023-03-03T02:18:14;49.78;;;36.83;;
19971;SDS011;10147;16.402;102.848;2023-03-03T02:26:35;47.60;;;35.75;;
19971;SDS011;10147;16.402;102.848;2023-03-03T02:29:09;61.47;;;43.33;;
19971;SDS011;10147;16.402;102.848;2023-03-03T02:31:40;51.92;;;36.75;;
19971;SDS011;10147;16.402;102.848;2023-03-03T02:34:13;46.65;;;36.40;;
19971;SDS011;10147;16.402;102.848;2023-03-03T02:36:43;47.08;;;36.05;;
19971;SDS011;10147;16.402;102.848;2023-03-03T02:39:24;51.15;;;36.50;;
19971;SDS011;10147;16.402;102.848;2023-03-03T02:44:56;46.20;;;36.47;;
19971;SDS011;10147;16.402;102.848;2023-03-03T02:47:28;50.05;;;37.47;;
19971;SDS011;10147;16.402;102.848;2023-03-03T02:49:58;50.47;;;38.30;;
19971;SDS011;10147;16.402;102.848;2023-03-03T02:52:29;57.03;;;37.90;;
19971;SDS011;10147;16.402;102.848;2023-03-03T02:54:59;58.65;;;38.88;;
19971;SDS011;10147;16.402;102.848;2023-03-03T02:57:30;49.45;;;37.33;;
19971;SDS011;10147;16.402;102.848;2023-03-03T03:00:00;51.92;;;38.33;;
19971;SDS011;10147;16.402;102.848;2023-03-03T03:02:31;48.35;;;37.15;;
19971;SDS011;10147;16.402;102.848;2023-03-03T03:05:03;48.63;;;34.58;;
19971;SDS011;10147;16.402;102.848;2023-03-03T03:07:34;49.28;;;35.17;;
19971;SDS011;10147;16.402;102.848;2023-03-03T03:10:04;49.75;;;36.85;;
19971;SDS011;10147;16.402;102.848;2023-03-03T03:12:37;46.75;;;36.20;;
19971;SDS011;10147;16.402;102.848;2023-03-03T03:15:10;46.17;;;36.45;;
19971;SDS011;10147;16.402;102.848;2023-03-03T03:17:40;46.30;;;34.95;;
19971;SDS011;10147;16.402;102.848;2023-03-03T03:20:11;45.70;;;34.03;;
19971;SDS011;10147;16.402;102.848;2023-03-03T03:22:42;46.78;;;34.72;;
19971;SDS011;10147;16.402;102.848;2023-03-03T03:25:13;46.58;;;34.90;;
19971;SDS011;10147;16.402;102.848;2023-03-03T03:27:43;48.00;;;34.25;;
19971;SDS011;10147;16.402;102.848;2023-03-03T03:30:13;47.00;;;35.55;;
19971;SDS011;10147;16.402;102.848;2023-03-03T03:32:44;46.03;;;33.75;;
19971;SDS011;10147;16.402;102.848;2023-03-03T03:35:15;48.40;;;35.70;;
19971;SDS011;10147;16.402;102.848;2023-03-03T03:37:45;42.50;;;32.00;;
19971;SDS011;10147;16.402;102.848;2023-03-03T03:40:16;43.50;;;33.33;;
19971;SDS011;10147;16.402;102.848;2023-03-03T03:42:47;40.38;;;32.00;;
19971;SDS011;10147;16.402;102.848;2023-03-03T03:45:17;41.78;;;32.38;;
19971;SDS011;10147;16.402;102.848;2023-03-03T03:47:48;40.65;;;30.77;;
19971;SDS011;10147;16.402;102.848;2023-03-03T03:50:19;39.53;;;29.52;;
19971;SDS011;10147;16.402;102.848;2023-03-03T03:52:48;41.95;;;30.25;;
19971;SDS011;10147;16.402;102.848;2023-03-03T03:55:19;41.72;;;30.52;;
19971;SDS011;10147;16.402;102.848;2023-03-03T03:57:51;38.47;;;29.88;;
19971;SDS011;10147;16.402;102.848;2023-03-03T04:00:22;39.60;;;31.00;;
19971;SDS011;10147;16.402;102.848;2023-03-03T04:02:57;42.55;;;32.00;;
19971;SDS011;10147;16.402;102.848;2023-03-03T04:05:28;37.78;;;30.13;;
19971;SDS011;10147;16.402;102.848;2023-03-03T04:07:58;42.03;;;30.35;;
19971;SDS011;10147;16.402;102.848;2023-03-03T04:10:28;38.38;;;28.67;;
19971;SDS011;10147;16.402;102.848;2023-03-03T04:12:59;40.22;;;30.27;;
19971;SDS011;10147;16.402;102.848;2023-03-03T04:15:29;37.50;;;30.35;;
19971;SDS011;10147;16.402;102.848;2023-03-03T04:18:00;43.13;;;29.58;;
19971;SDS011;10147;16.402;102.848;2023-03-03T04:20:31;42.80;;;30.35;;
19971;SDS011;10147;16.402;102.848;2023-03-03T04:23:02;44.15;;;33.83;;
19971;SDS011;10147;16.402;102.848;2023-03-03T04:25:33;43.42;;;36.58;;
19971;SDS011;10147;16.402;102.848;2023-03-03T04:28:11;45.30;;;34.67;;
19971;SDS011;10147;16.402;102.848;2023-03-03T04:30:42;39.53;;;34.58;;
19971;SDS011;10147;16.402;102.848;2023-03-03T04:33:15;38.38;;;30.27;;
19971;SDS011;10147;16.402;102.848;2023-03-03T04:35:46;37.00;;;29.08;;
19971;SDS011;10147;16.402;102.848;2023-03-03T04:38:17;38.00;;;29.08;;
19971;SDS011;10147;16.402;102.848;2023-03-03T04:40:48;36.33;;;27.48;;
19971;SDS011;10147;16.402;102.848;2023-03-03T04:43:19;35.17;;;28.83;;
19971;SDS011;10147;16.402;102.848;2023-03-03T04:45:52;37.83;;;28.65;;
19971;SDS011;10147;16.402;102.848;2023-03-03T04:48:22;34.95;;;30.08;;
19971;SDS011;10147;16.402;102.848;2023-03-03T04:50:53;41.10;;;28.33;;
19971;SDS011;10147;16.402;102.848;2023-03-03T04:53:23;38.78;;;30.08;;
19971;SDS011;10147;16.402;102.848;2023-03-03T04:55:55;36.38;;;30.80;;
19971;SDS011;10147;16.402;102.848;2023-03-03T04:58:25;36.25;;;28.02;;
19971;SDS011;10147;16.402;102.848;2023-03-03T05:00:56;34.65;;;28.85;;
19971;SDS011;10147;16.402;102.848;2023-03-03T05:03:29;38.45;;;28.67;;
19971;SDS011;10147;16.402;102.848;2023-03-03T05:05:59;39.70;;;28.30;;
19971;SDS011;10147;16.402;102.848;2023-03-03T05:08:30;39.35;;;27.23;;
19971;SDS011;10147;16.402;102.848;2023-03-03T05:11:02;35.25;;;26.95;;
19971;SDS011;10147;16.402;102.848;2023-03-03T05:13:33;34.38;;;26.77;;
19971;SDS011;10147;16.402;102.848;2023-03-03T05:16:04;33.15;;;27.23;;
19971;SDS011;10147;16.402;102.848;2023-03-03T05:18:34;34.15;;;26.75;;
19971;SDS011;10147;16.402;102.848;2023-03-03T05:21:05;34.75;;;26.17;;
19971;SDS011;10147;16.402;102.848;2023-03-03T05:23:35;37.17;;;26.25;;
19971;SDS011;10147;16.402;102.848;2023-03-03T05:26:06;30.83;;;25.60;;
19971;SDS011;10147;16.402;102.848;2023-03-03T05:28:36;31.63;;;25.15;;
19971;SDS011;10147;16.402;102.848;2023-03-03T05:31:06;34.60;;;25.77;;
19971;SDS011;10147;16.402;102.848;2023-03-03T05:33:37;42.85;;;26.75;;
19971;SDS011;10147;16.402;102.848;2023-03-03T05:36:07;35.92;;;27.08;;
19971;SDS011;10147;16.402;102.848;2023-03-03T05:38:38;32.88;;;25.05;;
19971;SDS011;10147;16.402;102.848;2023-03-03T05:41:08;31.10;;;25.30;;
19971;SDS011;10147;16.402;102.848;2023-03-03T05:43:39;37.20;;;26.30;;
19971;SDS011;10147;16.402;102.848;2023-03-03T05:46:09;33.88;;;25.52;;
19971;SDS011;10147;16.402;102.848;2023-03-03T05:48:40;34.53;;;27.23;;
19971;SDS011;10147;16.402;102.848;2023-03-03T05:51:10;31.65;;;26.35;;
19971;SDS011;10147;16.402;102.848;2023-03-03T05:53:41;34.10;;;25.50;;
19971;SDS011;10147;16.402;102.848;2023-03-03T05:56:12;30.40;;;26.13;;
19971;SDS011;10147;16.402;102.848;2023-03-03T05:58:43;37.38;;;26.23;;
19971;SDS011;10147;16.402;102.848;2023-03-03T06:01:14;31.98;;;24.75;;
19971;SDS011;10147;16.402;102.848;2023-03-03T06:03:44;33.55;;;28.10;;
19971;SDS011;10147;16.402;102.848;2023-03-03T06:06:15;38.15;;;32.63;;
19971;SDS011;10147;16.402;102.848;2023-03-03T06:08:46;34.55;;;30.85;;
19971;SDS011;10147;16.402;102.848;2023-03-03T06:11:17;35.40;;;30.27;;
19971;SDS011;10147;16.402;102.848;2023-03-03T06:13:48;36.13;;;25.95;;
19971;SDS011;10147;16.402;102.848;2023-03-03T06:16:18;29.25;;;25.48;;
19971;SDS011;10147;16.402;102.848;2023-03-03T06:18:49;35.15;;;25.63;;
19971;SDS011;10147;16.402;102.848;2023-03-03T06:21:20;34.38;;;26.73;;
19971;SDS011;10147;16.402;102.848;2023-03-03T06:23:50;28.52;;;24.55;;
19971;SDS011;10147;16.402;102.848;2023-03-03T06:26:20;34.45;;;26.25;;
19971;SDS011;10147;16.402;102.848;2023-03-03T06:28:52;32.38;;;26.15;;
19971;SDS011;10147;16.402;102.848;2023-03-03T06:31:23;36.00;;;27.65;;
19971;SDS011;10147;16.402;102.848;2023-03-03T06:33:54;30.77;;;25.48;;
19971;SDS011;10147;16.402;102.848;2023-03-03T06:36:24;35.42;;;26.13;;
19971;SDS011;10147;16.402;102.848;2023-03-03T06:38:55;32.33;;;25.77;;
19971;SDS011;10147;16.402;102.848;2023-03-03T06:41:25;33.20;;;25.73;;
19971;SDS011;10147;16.402;102.848;2023-03-03T06:43:55;36.22;;;26.58;;
19971;SDS011;10147;16.402;102.848;2023-03-03T06:46:28;35.08;;;24.73;;
19971;SDS011;10147;16.402;102.848;2023-03-03T06:48:59;33.75;;;24.25;;
19971;SDS011;10147;16.402;102.848;2023-03-03T06:51:31;31.27;;;24.63;;
19971;SDS011;10147;16.402;102.848;2023-03-03T06:54:14;35.58;;;24.98;;
19971;SDS011;10147;16.402;102.848;2023-03-03T06:56:46;31.17;;;24.58;;
19971;SDS011;10147;16.402;102.848;2023-03-03T06:59:18;29.63;;;24.95;;
19971;SDS011;10147;16.402;102.848;2023-03-03T07:01:50;30.88;;;25.83;;
19971;SDS011;10147;16.402;102.848;2023-03-03T07:04:27;31.38;;;25.80;;
19971;SDS011;10147;16.402;102.848;2023-03-03T07:07:15;32.35;;;26.60;;
19971;SDS011;10147;16.402;102.848;2023-03-03T07:09:51;28.27;;;25.20;;
19971;SDS011;10147;16.402;102.848;2023-03-03T07:12:25;29.85;;;24.65;;
19971;SDS011;10147;16.402;102.848;2023-03-03T07:15:01;32.78;;;25.13;;
19971;SDS011;10147;16.402;102.848;2023-03-03T07:17:51;33.78;;;24.88;;
19971;SDS011;10147;16.402;102.848;2023-03-03T07:20:31;29.33;;;25.20;;
19971;SDS011;10147;16.402;102.848;2023-03-03T07:26:24;30.77;;;25.23;;
19971;SDS011;10147;16.402;102.848;2023-03-03T07:31:56;27.63;;;23.83;;
19971;SDS011;10147;16.402;102.848;2023-03-03T07:37:26;30.70;;;24.92;;
19971;SDS011;10147;16.402;102.848;2023-03-03T07:40:05;29.55;;;25.17;;
19971;SDS011;10147;16.402;102.848;2023-03-03T07:43:24;35.47;;;25.02;;
19971;SDS011;10147;16.402;102.848;2023-03-03T08:04:41;26.92;;;22.65;;
19971;SDS011;10147;16.402;102.848;2023-03-03T08:07:18;28.75;;;23.02;;
19971;SDS011;10147;16.402;102.848;2023-03-03T08:09:55;28.48;;;21.92;;
19971;SDS011;10147;16.402;102.848;2023-03-03T08:12:30;29.30;;;22.67;;
19971;SDS011;10147;16.402;102.848;2023-03-03T08:15:21;30.70;;;22.48;;
19971;SDS011;10147;16.402;102.848;2023-03-03T08:17:54;32.45;;;23.65;;
19971;SDS011;10147;16.402;102.848;2023-03-03T08:20:38;25.98;;;22.85;;
19971;SDS011;10147;16.402;102.848;2023-03-03T08:23:13;25.73;;;22.60;;
19971;SDS011;10147;16.402;102.848;2023-03-03T08:25:45;26.38;;;23.60;;
19971;SDS011;10147;16.402;102.848;2023-03-03T08:28:17;31.70;;;23.90;;
19971;SDS011;10147;16.402;102.848;2023-03-03T08:30:48;30.08;;;23.00;;
19971;SDS011;10147;16.402;102.848;2023-03-03T08:33:31;28.45;;;22.98;;
19971;SDS011;10147;16.402;102.848;2023-03-03T08:36:02;28.23;;;22.17;;
19971;SDS011;10147;16.402;102.848;2023-03-03T08:38:36;26.92;;;22.55;;
19971;SDS011;10147;16.402;102.848;2023-03-03T08:41:07;29.92;;;24.08;;
19971;SDS011;10147;16.402;102.848;2023-03-03T08:43:38;29.00;;;22.42;;
19971;SDS011;10147;16.402;102.848;2023-03-03T08:46:08;30.63;;;22.67;;
19971;SDS011;10147;16.402;102.848;2023-03-03T08:48:39;27.20;;;22.35;;
19971;SDS011;10147;16.402;102.848;2023-03-03T08:51:10;29.13;;;23.35;;
19971;SDS011;10147;16.402;102.848;2023-03-03T08:53:40;24.58;;;21.98;;
19971;SDS011;10147;16.402;102.848;2023-03-03T08:56:10;28.77;;;22.00;;
19971;SDS011;10147;16.402;102.848;2023-03-03T08:58:41;25.70;;;21.98;;
19971;SDS011;10147;16.402;102.848;2023-03-03T09:01:31;31.52;;;23.60;;
19971;SDS011;10147;16.402;102.848;2023-03-03T09:04:02;29.05;;;22.33;;
19971;SDS011;10147;16.402;102.848;2023-03-03T09:06:33;28.67;;;23.15;;
19971;SDS011;10147;16.402;102.848;2023-03-03T09:09:03;26.63;;;23.00;;
19971;SDS011;10147;16.402;102.848;2023-03-03T09:11:34;39.00;;;33.88;;
19971;SDS011;10147;16.402;102.848;2023-03-03T09:14:11;35.65;;;31.52;;
19971;SDS011;10147;16.402;102.848;2023-03-03T09:16:46;38.72;;;34.75;;
19971;SDS011;10147;16.402;102.848;2023-03-03T09:19:26;32.95;;;23.27;;
19971;SDS011;10147;16.402;102.848;2023-03-03T09:22:10;32.08;;;25.20;;
19971;SDS011;10147;16.402;102.848;2023-03-03T09:24:49;33.22;;;25.38;;
19971;SDS011;10147;16.402;102.848;2023-03-03T09:27:27;29.83;;;24.48;;
19971;SDS011;10147;16.402;102.848;2023-03-03T09:36:00;32.42;;;24.55;;
19971;SDS011;10147;16.402;102.848;2023-03-03T09:38:52;34.03;;;26.13;;
19971;SDS011;10147;16.402;102.848;2023-03-03T09:47:49;33.88;;;25.35;;
19971;SDS011;10147;16.402;102.848;2023-03-03T10:00:07;34.30;;;26.30;;
19971;SDS011;10147;16.402;102.848;2023-03-03T10:02:55;32.95;;;27.75;;
19971;SDS011;10147;16.402;102.848;2023-03-03T10:09:17;33.83;;;27.33;;
19971;SDS011;10147;16.402;102.848;2023-03-03T10:12:19;36.85;;;28.08;;
19971;SDS011;10147;16.402;102.848;2023-03-03T10:18:18;37.85;;;29.05;;
19971;SDS011;10147;16.402;102.848;2023-03-03T10:21:11;36.38;;;27.85;;
19971;SDS011;10147;16.402;102.848;2023-03-03T10:52:21;38.53;;;28.40;;
19971;SDS011;10147;16.402;102.848;2023-03-03T10:55:12;39.53;;;28.80;;
19971;SDS011;10147;16.402;102.848;2023-03-03T11:01:10;35.50;;;30.52;;
19971;SDS011;10147;16.402;102.848;2023-03-03T11:04:05;37.70;;;29.83;;
19971;SDS011;10147;16.402;102.848;2023-03-03T11:06:52;45.03;;;30.00;;
19971;SDS011;10147;16.402;102.848;2023-03-03T11:09:38;49.92;;;30.40;;
19971;SDS011;10147;16.402;102.848;2023-03-03T11:18:50;42.75;;;31.27;;
19971;SDS011;10147;16.402;102.848;2023-03-03T11:21:47;45.67;;;31.40;;
19971;SDS011;10147;16.402;102.848;2023-03-03T11:27:37;42.05;;;33.97;;
19971;SDS011;10147;16.402;102.848;2023-03-03T11:33:55;55.47;;;40.80;;
19971;SDS011;10147;16.402;102.848;2023-03-03T11:36:39;48.38;;;30.77;;
19971;SDS011;10147;16.402;102.848;2023-03-03T11:39:22;49.63;;;33.35;;
19971;SDS011;10147;16.402;102.848;2023-03-03T11:42:10;54.10;;;33.65;;
19971;SDS011;10147;16.402;102.848;2023-03-03T11:45:00;59.80;;;35.58;;
19971;SDS011;10147;16.402;102.848;2023-03-03T11:47:42;61.85;;;36.65;;
19971;SDS011;10147;16.402;102.848;2023-03-03T11:50:35;71.05;;;38.63;;
19971;SDS011;10147;16.402;102.848;2023-03-03T11:59:20;89.72;;;48.95;;
19971;SDS011;10147;16.402;102.848;2023-03-03T12:02:34;123.80;;;60.00;;
19971;SDS011;10147;16.402;102.848;2023-03-03T12:05:38;105.00;;;52.78;;
19971;SDS011;10147;16.402;102.848;2023-03-03T12:17:53;102.88;;;55.28;;
19971;SDS011;10147;16.402;102.848;2023-03-03T12:20:50;129.80;;;67.07;;
19971;SDS011;10147;16.402;102.848;2023-03-03T12:23:46;294.42;;;136.23;;
19971;SDS011;10147;16.402;102.848;2023-03-03T12:29:39;328.08;;;151.27;;
19971;SDS011;10147;16.402;102.848;2023-03-03T12:32:21;199.23;;;98.05;;
19971;SDS011;10147;16.402;102.848;2023-03-03T12:41:36;195.02;;;96.38;;
19971;SDS011;10147;16.402;102.848;2023-03-03T12:44:20;202.98;;;100.88;;
19971;SDS011;10147;16.402;102.848;2023-03-03T12:47:05;185.98;;;100.80;;
19971;SDS011;10147;16.402;102.848;2023-03-03T12:53:07;147.30;;;78.80;;
19971;SDS011;10147;16.402;102.848;2023-03-03T12:56:07;152.98;;;81.03;;
19971;SDS011;10147;16.402;102.848;2023-03-03T13:01:51;124.15;;;72.63;;
19971;SDS011;10147;16.402;102.848;2023-03-03T13:04:37;138.95;;;81.65;;
19971;SDS011;10147;16.402;102.848;2023-03-03T13:10:36;127.50;;;72.38;;
19971;SDS011;10147;16.402;102.848;2023-03-03T13:16:34;118.40;;;64.13;;
19971;SDS011;10147;16.402;102.848;2023-03-03T13:25:27;64.95;;;46.58;;
19971;SDS011;10147;16.402;102.848;2023-03-03T13:34:13;68.47;;;45.55;;
19971;SDS011;10147;16.402;102.848;2023-03-03T13:36:58;74.13;;;48.88;;
19971;SDS011;10147;16.402;102.848;2023-03-03T13:39:49;72.10;;;50.13;;
19971;SDS011;10147;16.402;102.848;2023-03-03T13:42:38;74.18;;;49.03;;
19971;SDS011;10147;16.402;102.848;2023-03-03T13:51:56;65.45;;;46.63;;
19971;SDS011;10147;16.402;102.848;2023-03-03T14:00:56;70.10;;;47.30;;
19971;SDS011;10147;16.402;102.848;2023-03-03T14:03:40;67.65;;;46.58;;
19971;SDS011;10147;16.402;102.848;2023-03-03T14:06:32;69.85;;;46.47;;
19971;SDS011;10147;16.402;102.848;2023-03-03T14:09:11;69.78;;;46.58;;
19971;SDS011;10147;16.402;102.848;2023-03-03T14:15:25;66.22;;;49.75;;
19971;SDS011;10147;16.402;102.848;2023-03-03T14:18:04;67.93;;;48.42;;
19971;SDS011;10147;16.402;102.848;2023-03-03T14:21:06;62.03;;;46.50;;
19971;SDS011;10147;16.402;102.848;2023-03-03T14:24:06;61.38;;;48.08;;
19971;SDS011;10147;16.402;102.848;2023-03-03T14:26:47;64.22;;;48.60;;
19971;SDS011;10147;16.402;102.848;2023-03-03T14:29:30;65.05;;;46.30;;
19971;SDS011;10147;16.402;102.848;2023-03-03T14:32:02;73.90;;;47.67;;
19971;SDS011;10147;16.402;102.848;2023-03-03T14:35:14;58.97;;;45.17;;
19971;SDS011;10147;16.402;102.848;2023-03-03T14:37:48;59.63;;;46.28;;
19971;SDS011;10147;16.402;102.848;2023-03-03T14:40:20;60.33;;;47.42;;
19971;SDS011;10147;16.402;102.848;2023-03-03T14:42:59;65.63;;;47.50;;
19971;SDS011;10147;16.402;102.848;2023-03-03T14:45:34;65.13;;;45.20;;
19971;SDS011;10147;16.402;102.848;2023-03-03T14:48:15;59.08;;;43.65;;
19971;SDS011;10147;16.402;102.848;2023-03-03T14:50:55;60.35;;;46.03;;
19971;SDS011;10147;16.402;102.848;2023-03-03T14:53:46;64.07;;;43.58;;
19971;SDS011;10147;16.402;102.848;2023-03-03T14:56:27;57.97;;;43.70;;
19971;SDS011;10147;16.402;102.848;2023-03-03T15:08:07;67.85;;;43.08;;
19971;SDS011;10147;16.402;102.848;2023-03-03T15:10:43;57.20;;;43.45;;
19971;SDS011;10147;16.402;102.848;2023-03-03T15:16:09;62.95;;;42.85;;
19971;SDS011;10147;16.402;102.848;2023-03-03T15:25:28;58.03;;;42.30;;
19971;SDS011;10147;16.402;102.848;2023-03-03T15:46:43;72.68;;;64.72;;
19971;SDS011;10147;16.402;102.848;2023-03-03T16:02:22;63.80;;;46.30;;
19971;SDS011;10147;16.402;102.848;2023-03-03T16:05:15;69.20;;;48.88;;
19971;SDS011;10147;16.402;102.848;2023-03-03T16:08:01;65.88;;;49.20;;
19971;SDS011;10147;16.402;102.848;2023-03-03T16:17:23;70.63;;;50.78;;
19971;SDS011;10147;16.402;102.848;2023-03-03T16:20:02;66.20;;;51.00;;
19971;SDS011;10147;16.402;102.848;2023-03-03T16:22:55;65.90;;;51.05;;
19971;SDS011;10147;16.402;102.848;2023-03-03T16:25:53;70.05;;;52.03;;
19971;SDS011;10147;16.402;102.848;2023-03-03T16:28:42;74.50;;;53.65;;
19971;SDS011;10147;16.402;102.848;2023-03-03T16:31:36;73.53;;;52.13;;
19971;SDS011;10147;16.402;102.848;2023-03-03T16:37:28;69.18;;;52.58;;
19971;SDS011;10147;16.402;102.848;2023-03-03T16:40:10;71.05;;;52.85;;
19971;SDS011;10147;16.402;102.848;2023-03-03T16:42:51;69.57;;;51.08;;
19971;SDS011;10147;16.402;102.848;2023-03-03T16:45:37;70.93;;;51.45;;
19971;SDS011;10147;16.402;102.848;2023-03-03T16:48:14;74.35;;;53.47;;
19971;SDS011;10147;16.402;102.848;2023-03-03T16:51:13;72.82;;;54.28;;
19971;SDS011;10147;16.402;102.848;2023-03-03T16:57:15;69.47;;;52.88;;
19971;SDS011;10147;16.402;102.848;2023-03-03T17:00:19;70.20;;;53.63;;
19971;SDS011;10147;16.402;102.848;2023-03-03T17:15:18;73.10;;;54.08;;
19971;SDS011;10147;16.402;102.848;2023-03-03T17:21:09;79.95;;;53.70;;
19971;SDS011;10147;16.402;102.848;2023-03-03T17:27:15;76.70;;;54.97;;
19971;SDS011;10147;16.402;102.848;2023-03-03T17:33:17;79.05;;;54.40;;
19971;SDS011;10147;16.402;102.848;2023-03-03T17:36:15;77.78;;;54.47;;
19971;SDS011;10147;16.402;102.848;2023-03-03T17:39:11;80.03;;;53.63;;
19971;SDS011;10147;16.402;102.848;2023-03-03T17:42:08;76.65;;;52.60;;
19971;SDS011;10147;16.402;102.848;2023-03-03T17:45:12;72.88;;;53.08;;
19971;SDS011;10147;16.402;102.848;2023-03-03T17:53:55;71.32;;;51.80;;
19971;SDS011;10147;16.402;102.848;2023-03-03T18:00:05;75.80;;;53.53;;
19971;SDS011;10147;16.402;102.848;2023-03-03T18:25:08;63.75;;;46.00;;
19971;SDS011;10147;16.402;102.848;2023-03-03T18:27:45;63.45;;;43.15;;
19971;SDS011;10147;16.402;102.848;2023-03-03T18:33:35;61.63;;;43.63;;
19971;SDS011;10147;16.402;102.848;2023-03-03T18:36:13;63.63;;;43.28;;
19971;SDS011;10147;16.402;102.848;2023-03-03T18:39:04;60.22;;;42.65;;
19971;SDS011;10147;16.402;102.848;2023-03-03T18:44:33;67.75;;;44.08;;
19971;SDS011;10147;16.402;102.848;2023-03-03T18:47:04;63.30;;;41.97;;
19971;SDS011;10147;16.402;102.848;2023-03-03T18:49:46;64.55;;;42.92;;
19971;SDS011;10147;16.402;102.848;2023-03-03T18:52:37;59.58;;;41.80;;
19971;SDS011;10147;16.402;102.848;2023-03-03T18:55:26;59.30;;;42.03;;
19971;SDS011;10147;16.402;102.848;2023-03-03T18:58:01;63.83;;;42.10;;
19971;SDS011;10147;16.402;102.848;2023-03-03T19:04:15;59.25;;;40.17;;
19971;SDS011;10147;16.402;102.848;2023-03-03T19:06:55;60.17;;;42.65;;
19971;SDS011;10147;16.402;102.848;2023-03-03T19:09:55;58.65;;;41.58;;
19971;SDS011;10147;16.402;102.848;2023-03-03T19:18:23;59.88;;;40.40;;
19971;SDS011;10147;16.402;102.848;2023-03-03T19:20:59;56.83;;;39.70;;
19971;SDS011;10147;16.402;102.848;2023-03-03T19:30:03;61.70;;;39.17;;
19971;SDS011;10147;16.402;102.848;2023-03-03T19:39:13;56.35;;;41.40;;
19971;SDS011;10147;16.402;102.848;2023-03-03T19:51:24;59.67;;;41.55;;
19971;SDS011;10147;16.402;102.848;2023-03-03T20:00:47;61.22;;;41.88;;
19971;SDS011;10147;16.402;102.848;2023-03-03T20:09:36;61.15;;;39.38;;
19971;SDS011;10147;16.402;102.848;2023-03-03T20:12:40;60.13;;;41.25;;
19971;SDS011;10147;16.402;102.848;2023-03-03T20:15:45;59.63;;;42.45;;
19971;SDS011;10147;16.402;102.848;2023-03-03T20:31:11;66.57;;;44.75;;
19971;SDS011;10147;16.402;102.848;2023-03-03T20:34:08;62.17;;;45.38;;
19971;SDS011;10147;16.402;102.848;2023-03-03T20:40:19;75.72;;;46.70;;
19971;SDS011;10147;16.402;102.848;2023-03-03T20:43:33;67.75;;;45.38;;
19971;SDS011;10147;16.402;102.848;2023-03-03T20:52:41;67.65;;;45.15;;
19971;SDS011;10147;16.402;102.848;2023-03-03T20:58:52;64.22;;;45.67;;
19971;SDS011;10147;16.402;102.848;2023-03-03T21:01:42;67.13;;;45.42;;
19971;SDS011;10147;16.402;102.848;2023-03-03T21:04:25;63.78;;;45.33;;
19971;SDS011;10147;16.402;102.848;2023-03-03T21:07:00;63.53;;;45.75;;
19971;SDS011;10147;16.402;102.848;2023-03-03T21:09:35;67.72;;;45.35;;
19971;SDS011;10147;16.402;102.848;2023-03-03T21:15:02;67.47;;;45.85;;
19971;SDS011;10147;16.402;102.848;2023-03-03T21:17:36;73.07;;;45.30;;